Flight Track Log - Related Links

Times and Time Zones

All times are in EDT time to prevent confusion due to time zone crossing. See the N230CA flight status page for this flight to view local times or setup timezone preferences in your user account.

Time Position Orientation Groundspeed Altitude Reporting Facility
EDT Latitude Longitude Course Direction KTS MPH feet Rate Location/Type
Wed 03:25:45 PM 35.9833 -86.5167 180° South 104 120 1,700  Level Nashville TRACON
Wed 03:26:46 PM 35.9500 -86.5167 195° South 122 140 2,300 446 Climbing Nashville TRACON
Wed 03:27:46 PM 35.9000 -86.5333 180° South 153 176 2,600 143 Climbing Nashville TRACON
Wed 03:28:52 PM 35.8500 -86.5333 90° East 164 189 2,600 333 Level Nashville TRACON
Wed 03:29:52 PM 35.8500 -86.4833 90° East 155 178 3,300 800 Climbing Nashville TRACON
Wed 03:30:52 PM 35.8500 -86.4333 90° East 139 160 4,200 947 Climbing Nashville TRACON
Wed 03:31:46 PM 35.8500 -86.3833 90° East 131 151 5,100 684 Climbing Nashville TRACON
Wed 03:32:46 PM 35.8500 -86.3333 90° East 142 163 5,500 200 Climbing Nashville TRACON
Wed 03:33:46 PM 35.8500 -86.2833 90° East 172 198 5,500  Level Nashville TRACON
Wed 03:34:46 PM 35.8500 -86.2167 90° East 181 208 5,500  Level Nashville TRACON
Wed 03:35:52 PM 35.8500 -86.1500 90° East 179 206 5,500  Level Nashville TRACON
Wed 03:36:58 PM 35.8500 -86.0833 91° East 174 200 5,500  Level Nashville TRACON
Wed 03:38:10 PM 35.8492 -86.0214 93° East 197 227 5,500 -45 Level Memphis Center
Wed 03:39:10 PM 35.8469 -85.9600 90° East 184 212 5,400 -50 Descending Memphis Center
Wed 03:40:10 PM 35.8467 -85.8933 95° East 173 199 5,400 50 Level Memphis Center
Wed 03:41:10 PM 35.8428 -85.8397 90° East 173 199 5,500 50 Climbing Memphis Center
Wed 03:42:10 PM 35.8428 -85.7808 90° East 173 199 5,500  Level Memphis Center
Wed 03:43:10 PM 35.8425 -85.7219 93° East 173 199 5,500  Level Memphis Center
Wed 03:44:10 PM 35.8403 -85.6633 90° East 173 199 5,500  Level Memphis Center
Wed 03:45:56 PM 35.8403 -85.5528 92° East 182 209 5,500  Level Atlanta Center
Wed 03:46:56 PM 35.8389 -85.4936 89° East 175 201 5,500  Level Atlanta Center
Wed 03:47:57 PM 35.8397 -85.4347 92° East 175 201 5,500  Level Atlanta Center
Wed 03:48:57 PM 35.8383 -85.3783 92° East 170 196 5,500  Level Atlanta Center
Wed 03:49:56 PM 35.8367 -85.3194 89° East 170 196 5,500  Level Atlanta Center
Wed 03:50:56 PM 35.8375 -85.2606 92° East 170 196 5,500  Level Atlanta Center
Wed 03:51:57 PM 35.8358 -85.2017 92° East 170 196 5,500  Level Atlanta Center
Wed 03:52:56 PM 35.8344 -85.1428 92° East 170 196 5,500  Level Atlanta Center
Wed 03:53:56 PM 35.8328 -85.0864 89° East 165 190 5,500  Level Atlanta Center
Wed 03:54:57 PM 35.8333 -85.0275 92° East 165 190 5,500  Level Atlanta Center
Wed 03:55:57 PM 35.8317 -84.9686 90° East 165 190 5,500  Level Atlanta Center
Wed 03:56:56 PM 35.8319 -84.9094 92° East 165 190 5,500  Level Atlanta Center
Wed 03:57:57 PM 35.8303 -84.8583 92° East 160 184 5,500  Level Atlanta Center
Wed 03:58:57 PM 35.8286 -84.8019 92° East 160 184 5,500  Level Atlanta Center
Wed 03:59:57 PM 35.8269 -84.7406 90° East 160 184 5,500  Level Atlanta Center
Wed 04:00:57 PM 35.8272 -84.6842 92° East 160 184 5,500  Level Atlanta Center
Wed 04:01:56 PM 35.8253 -84.6253 92° East 160 184 5,500 50 Level Atlanta Center
Wed 04:02:57 PM 35.8236 -84.5664 92° East 160 184 5,600 -50 Climbing Atlanta Center
Wed 04:03:56 PM 35.8217 -84.5075 90° East 160 184 5,400 -100 Descending Atlanta Center
Wed 04:04:57 PM 35.8219 -84.4486 90° East 160 184 5,400  Level Atlanta Center
Wed 04:05:57 PM 35.8219 -84.3922 94° East 160 184 5,400  Level Atlanta Center
Wed 04:13:18 PM 35.8000 -84.0057 41° Northeast  Level FlightAware Approximate
Wed 04:14:18 PM 35.8324 -83.9712 197° South  Level Estimated
Wed 04:15:18 PM 35.8000 -83.9833 322° Northwest  Level FlightAware Approximate
Wed 04:16:18 PM 35.8335 -84.0160 142° Southeast  Level Estimated
Wed 04:17:18 PM 35.8000 -83.9833 322° Northwest  Level FlightAware Approximate
Wed 04:18:18 PM 35.8335 -84.0160 322° Northwest  Level Estimated

Login

Don't have an account? Register now (free) for customized features, flight alerts, and more!